Time;durP1;ratioP1;P1;durP2;ratioP2;P2;SDS_P1;SDS_P2;PMS_P1;PMS_P2;Temp;Humidity;BMP_temperature;BMP_pressure;BME280_temperature;BME280_humidity;BME280_pressure;Samples;Min_cycle;Max_cycle;Signal;HPM_P1;HPM_P2
2023/12/26 00:02:10;;;;;;;6.60;3.67;;;9.20;99.90;;;;;;5065197;28;20263;-49
2023/12/26 00:04:37;;;;;;;4.80;2.90;;;9.10;99.90;;;;;;5055419;28;20271;-46
2023/12/26 00:07:04;;;;;;;5.70;3.17;;;9.10;99.90;;;;;;5072152;28;20277;-46
2023/12/26 00:09:31;;;;;;;3.43;2.77;;;9.10;99.90;;;;;;5071812;28;20256;-49
2023/12/26 00:11:58;;;;;;;3.90;2.97;;;9.10;99.90;;;;;;5048477;28;20216;-47
2023/12/26 00:14:26;;;;;;;5.20;3.23;;;9.20;99.90;;;;;;5069128;28;20755;-48
2023/12/26 00:16:54;;;;;;;3.30;2.87;;;9.20;99.90;;;;;;5062449;28;20197;-49
2023/12/26 00:19:21;;;;;;;3.13;2.80;;;9.20;99.90;;;;;;5055121;28;20208;-50
2023/12/26 00:21:48;;;;;;;5.00;2.70;;;9.20;99.90;;;;;;5074181;28;20210;-51
2023/12/26 00:24:15;;;;;;;4.57;2.47;;;9.20;99.90;;;;;;5073496;28;20194;-49
2023/12/26 00:26:42;;;;;;;6.47;2.77;;;9.20;99.90;;;;;;5048217;28;20622;-51
2023/12/26 00:29:09;;;;;;;3.97;2.30;;;9.20;99.90;;;;;;5067052;28;20199;-49
2023/12/26 00:31:41;;;;;;;4.63;1.97;;;9.20;99.90;;;;;;5075063;28;20210;-52
2023/12/26 00:34:09;;;;;;;5.63;2.10;;;9.20;99.90;;;;;;5073812;28;20293;-52
2023/12/26 00:36:36;;;;;;;6.57;2.17;;;9.20;99.90;;;;;;5056560;28;20243;-52
2023/12/26 00:39:03;;;;;;;4.67;2.20;;;9.20;99.90;;;;;;5063750;28;20195;-58
2023/12/26 00:41:30;;;;;;;3.60;2.30;;;9.20;99.90;;;;;;5070290;28;20214;-55
2023/12/26 00:43:58;;;;;;;4.33;1.67;;;9.10;99.90;;;;;;5049249;28;20423;-57
2023/12/26 00:46:25;;;;;;;3.17;1.60;;;9.20;99.90;;;;;;5076433;28;20194;-51
2023/12/26 00:48:53;;;;;;;3.60;1.80;;;9.10;99.90;;;;;;5062992;28;20225;-52
2023/12/26 00:51:20;;;;;;;1.90;1.67;;;9.10;99.90;;;;;;5054670;28;20215;-56
2023/12/26 00:53:47;;;;;;;2.63;1.40;;;9.10;99.90;;;;;;5077710;28;20205;-57
2023/12/26 00:56:15;;;;;;;3.30;1.10;;;9.10;99.90;;;;;;5076132;28;20199;-51
2023/12/26 00:58:43;;;;;;;4.13;1.10;;;9.10;99.90;;;;;;5049156;28;20194;-56
2023/12/26 01:01:11;;;;;;;1.53;0.93;;;9.10;99.90;;;;;;5069779;28;20226;-55
2023/12/26 01:03:39;;;;;;;3.23;1.07;;;9.10;99.90;;;;;;5066684;28;20240;-48
2023/12/26 01:06:07;;;;;;;2.93;1.07;;;9.10;99.90;;;;;;5064636;28;20194;-50
2023/12/26 01:08:35;;;;;;;1.47;1.00;;;9.00;99.90;;;;;;5055074;28;20205;-54
2023/12/26 01:11:02;;;;;;;2.03;0.60;;;9.00;99.90;;;;;;5076893;28;20214;-52
2023/12/26 01:13:34;;;;;;;3.30;0.90;;;9.00;99.90;;;;;;5073049;28;20210;-55
2023/12/26 01:16:01;;;;;;;2.20;0.80;;;9.00;99.90;;;;;;5063783;28;20201;-54
2023/12/26 01:18:28;;;;;;;1.53;0.90;;;9.00;99.90;;;;;;5079059;28;20650;-51
2023/12/26 01:20:56;;;;;;;1.97;1.10;;;9.00;99.90;;;;;;5067519;28;20211;-48
2023/12/26 01:23:24;;;;;;;3.37;1.17;;;9.00;99.90;;;;;;5065064;28;20205;-52
2023/12/26 01:25:51;;;;;;;5.57;1.10;;;9.00;99.90;;;;;;5068782;28;20792;-48
2023/12/26 01:28:19;;;;;;;2.87;0.97;;;9.00;99.90;;;;;;5078909;28;20202;-48
2023/12/26 01:30:46;;;;;;;1.87;1.00;;;9.00;99.90;;;;;;5051497;28;20373;-51
2023/12/26 01:33:13;;;;;;;3.77;1.13;;;9.00;99.90;;;;;;5078389;28;20191;-49
2023/12/26 01:35:40;;;;;;;1.10;0.90;;;9.00;99.90;;;;;;5072365;28;20294;-53
2023/12/26 01:38:07;;;;;;;1.77;0.80;;;9.00;99.90;;;;;;5054896;28;20198;-50
2023/12/26 01:40:40;;;;;;;1.00;0.73;;;9.00;99.90;;;;;;5079406;28;20253;-51
2023/12/26 01:43:07;;;;;;;2.43;1.10;;;9.00;99.90;;;;;;5076518;28;20218;-49
2023/12/26 01:45:34;;;;;;;3.57;1.17;;;8.90;99.90;;;;;;5054121;28;20217;-49
2023/12/26 01:48:03;;;;;;;1.67;0.80;;;9.00;99.90;;;;;;5076797;28;20194;-50
2023/12/26 01:50:30;;;;;;;1.03;0.77;;;9.00;99.90;;;;;;5066230;28;20226;-50
2023/12/26 01:52:58;;;;;;;2.10;0.80;;;9.00;99.90;;;;;;5059820;28;20782;-50
2023/12/26 01:55:25;;;;;;;1.07;0.97;;;9.00;99.90;;;;;;5082858;28;20194;-52
2023/12/26 01:57:54;;;;;;;1.07;0.87;;;9.00;99.90;;;;;;5068972;28;20190;-51
2023/12/26 02:00:22;;;;;;;1.57;0.80;;;9.00;99.90;;;;;;5045337;28;20685;-51
2023/12/26 02:02:52;;;;;;;1.30;0.87;;;9.00;99.90;;;;;;5068504;28;20210;-52
2023/12/26 02:05:20;;;;;;;3.40;0.90;;;9.00;99.90;;;;;;5075615;28;20206;-55
2023/12/26 02:07:47;;;;;;;2.40;0.77;;;9.00;99.90;;;;;;5053385;28;20216;-54
2023/12/26 02:10:14;;;;;;;3.53;0.83;;;9.10;99.90;;;;;;5072028;28;20247;-52
2023/12/26 02:12:41;;;;;;;1.27;1.00;;;9.00;99.90;;;;;;5072502;28;20228;-54
2023/12/26 02:15:10;;;;;;;1.60;0.97;;;9.00;99.90;;;;;;5073653;28;20205;-53
2023/12/26 02:17:38;;;;;;;1.10;0.87;;;9.10;99.90;;;;;;5043470;28;20207;-48
2023/12/26 02:20:07;;;;;;;0.97;0.80;;;9.10;99.90;;;;;;5077245;28;20214;-53
2023/12/26 02:22:35;;;;;;;2.93;1.10;;;9.10;99.90;;;;;;5078261;28;20209;-54
2023/12/26 02:25:04;;;;;;;1.67;0.73;;;9.10;99.90;;;;;;5053363;28;20229;-53
2023/12/26 02:27:34;;;;;;;1.37;0.70;;;9.10;99.90;;;;;;5076820;28;20225;-55
2023/12/26 02:30:04;;;;;;;2.60;0.90;;;9.10;99.90;;;;;;5077344;28;20385;-55
2023/12/26 02:32:34;;;;;;;0.87;0.77;;;9.20;99.90;;;;;;5054655;28;20214;-56
2023/12/26 02:35:02;;;;;;;0.80;0.57;;;9.10;99.90;;;;;;5078844;28;20214;-51
2023/12/26 02:37:30;;;;;;;1.30;0.77;;;9.10;99.90;;;;;;5066665;28;20285;-53
2023/12/26 02:39:57;;;;;;;0.70;0.70;;;9.20;99.90;;;;;;5057229;28;20425;-55
2023/12/26 02:42:29;;;;;;;0.73;0.70;;;9.20;99.90;;;;;;5079857;28;20226;-54
2023/12/26 02:44:57;;;;;;;1.07;0.70;;;9.20;99.90;;;;;;5078355;28;20247;-52
2023/12/26 02:47:24;;;;;;;1.70;0.83;;;9.20;99.90;;;;;;5055252;28;20285;-54
2023/12/26 02:49:52;;;;;;;0.67;0.60;;;9.20;99.90;;;;;;5070170;28;20273;-55
2023/12/26 02:52:19;;;;;;;1.10;0.70;;;9.10;99.90;;;;;;5067687;28;20288;-54
2023/12/26 02:54:46;;;;;;;0.87;0.60;;;9.20;99.90;;;;;;5058351;28;20197;-53
2023/12/26 02:57:13;;;;;;;1.23;0.73;;;9.20;99.90;;;;;;5073127;28;20214;-52
2023/12/26 02:59:42;;;;;;;0.80;0.70;;;9.20;99.90;;;;;;5072043;28;20199;-49
2023/12/26 03:02:09;;;;;;;0.50;0.50;;;9.20;99.90;;;;;;5045193;28;20269;-51
2023/12/26 03:04:36;;;;;;;0.70;0.70;;;9.20;99.90;;;;;;5079518;28;20247;-50
2023/12/26 03:07:03;;;;;;;0.67;0.67;;;9.20;99.90;;;;;;5071177;28;20187;-48
2023/12/26 03:09:31;;;;;;;1.00;0.70;;;9.20;99.90;;;;;;5072336;28;20221;-48
2023/12/26 03:11:58;;;;;;;0.57;0.57;;;9.20;99.90;;;;;;5052175;28;20225;-48
2023/12/26 03:14:25;;;;;;;1.47;0.60;;;9.20;99.90;;;;;;5073346;28;20586;-49
2023/12/26 03:16:54;;;;;;;1.73;0.70;;;9.20;99.90;;;;;;5046857;28;20206;-50
2023/12/26 03:19:21;;;;;;;0.53;0.50;;;9.20;99.90;;;;;;5073737;28;20274;-48
2023/12/26 03:21:48;;;;;;;3.60;0.63;;;9.20;99.90;;;;;;5071908;28;20319;-48
2023/12/26 03:24:16;;;;;;;1.87;0.50;;;9.10;99.90;;;;;;5067364;28;20235;-52
2023/12/26 03:26:43;;;;;;;1.00;0.50;;;9.20;99.90;;;;;;5052892;28;20204;-52
2023/12/26 03:29:10;;;;;;;0.90;0.57;;;9.10;99.90;;;;;;5073908;28;20199;-53
2023/12/26 03:31:43;;;;;;;0.90;0.63;;;9.20;99.90;;;;;;5073654;28;20209;-50
2023/12/26 03:34:12;;;;;;;0.40;0.40;;;9.20;99.90;;;;;;5049438;28;20336;-52
2023/12/26 03:36:44;;;;;;;1.63;0.60;;;9.20;99.90;;;;;;5070167;28;20198;-52
2023/12/26 03:39:11;;;;;;;1.80;0.70;;;9.20;99.90;;;;;;5062522;28;20203;-54
2023/12/26 03:41:38;;;;;;;1.67;0.53;;;9.20;99.90;;;;;;5063835;28;20704;-50
2023/12/26 03:44:06;;;;;;;3.70;0.63;;;9.20;99.90;;;;;;5069150;28;20291;-49
2023/12/26 03:46:33;;;;;;;1.87;0.53;;;9.30;99.90;;;;;;5077072;28;20236;-51
2023/12/26 03:49:01;;;;;;;1.77;0.47;;;9.30;99.90;;;;;;5042854;28;20202;-49
2023/12/26 03:51:29;;;;;;;0.90;0.60;;;9.30;99.90;;;;;;5079600;28;20237;-50
2023/12/26 03:53:57;;;;;;;1.90;0.60;;;9.30;99.90;;;;;;5062758;28;20341;-50
2023/12/26 03:56:24;;;;;;;2.40;1.00;;;9.30;99.90;;;;;;5081373;28;20599;-50
2023/12/26 03:58:51;;;;;;;3.20;0.60;;;9.30;99.90;;;;;;5050889;28;20204;-50
2023/12/26 04:01:18;;;;;;;0.77;0.40;;;9.30;99.90;;;;;;5063679;28;20217;-52
2023/12/26 04:03:46;;;;;;;3.10;0.70;;;9.30;99.90;;;;;;5072857;28;20202;-51
2023/12/26 04:06:13;;;;;;;1.00;0.53;;;9.30;99.90;;;;;;5052613;28;20246;-52
2023/12/26 04:08:42;;;;;;;2.70;0.47;;;9.30;99.90;;;;;;5072055;28;20219;-53
2023/12/26 04:11:09;;;;;;;3.10;0.60;;;9.30;99.90;;;;;;5068022;28;20323;-50
2023/12/26 04:13:37;;;;;;;2.40;0.80;;;9.30;99.90;;;;;;5047931;28;20280;-49
2023/12/26 04:16:04;;;;;;;2.93;0.60;;;9.30;99.90;;;;;;5073662;28;20194;-54
2023/12/26 04:18:31;;;;;;;3.27;0.80;;;9.30;99.90;;;;;;5077873;28;20997;-52
2023/12/26 04:20:59;;;;;;;4.17;0.73;;;9.30;99.90;;;;;;5045115;28;20218;-52
2023/12/26 04:23:27;;;;;;;2.43;0.67;;;9.30;99.90;;;;;;5071385;28;20313;-51
2023/12/26 04:25:55;;;;;;;3.07;0.87;;;9.30;99.90;;;;;;5070674;28;20194;-49
2023/12/26 04:28:24;;;;;;;2.63;1.20;;;9.30;99.90;;;;;;5059492;28;20224;-55
2023/12/26 04:30:51;;;;;;;4.63;0.90;;;9.30;99.90;;;;;;5071990;28;20206;-50
2023/12/26 04:33:19;;;;;;;2.93;0.70;;;9.30;99.90;;;;;;5072354;28;20557;-50
2023/12/26 04:35:47;;;;;;;1.63;0.70;;;9.30;99.90;;;;;;5045883;28;20723;-47
2023/12/26 04:38:14;;;;;;;1.90;1.00;;;9.30;99.90;;;;;;5075511;28;20225;-51
2023/12/26 04:40:41;;;;;;;3.50;0.60;;;9.30;99.90;;;;;;5073923;28;20213;-52
2023/12/26 04:43:10;;;;;;;4.53;1.20;;;9.30;99.90;;;;;;5053037;28;20258;-53
2023/12/26 04:45:38;;;;;;;3.07;0.70;;;9.30;99.90;;;;;;5082108;28;20194;-53
2023/12/26 04:48:08;;;;;;;3.43;0.77;;;9.30;99.90;;;;;;5069239;28;20201;-51
2023/12/26 04:50:35;;;;;;;5.87;1.20;;;9.30;99.90;;;;;;5075357;28;20625;-51
2023/12/26 04:53:04;;;;;;;7.30;1.20;;;9.30;99.90;;;;;;5049029;28;20195;-51
2023/12/26 04:55:32;;;;;;;3.03;1.10;;;9.30;99.90;;;;;;5076422;28;20927;-51
2023/12/26 04:57:59;;;;;;;6.30;1.10;;;9.30;99.90;;;;;;5068624;28;20198;-56
2023/12/26 05:00:27;;;;;;;6.80;1.40;;;9.30;99.90;;;;;;5060373;28;20611;-53
2023/12/26 05:02:55;;;;;;;8.13;1.50;;;9.20;99.90;;;;;;5073191;28;20217;-51
2023/12/26 05:05:22;;;;;;;10.67;1.40;;;9.20;99.90;;;;;;5075925;28;20205;-55
2023/12/26 05:07:49;;;;;;;7.60;1.50;;;9.10;99.90;;;;;;5065559;28;21566;-56
2023/12/26 05:10:17;;;;;;;11.20;1.97;;;9.10;99.90;;;;;;5078410;28;20653;-53
2023/12/26 05:12:44;;;;;;;5.47;1.60;;;9.00;99.90;;;;;;5065542;28;20190;-55
2023/12/26 05:15:11;;;;;;;6.17;1.47;;;9.00;99.90;;;;;;5061074;28;20197;-53
2023/12/26 05:17:39;;;;;;;11.10;1.40;;;9.00;99.90;;;;;;5081603;28;20210;-52
2023/12/26 05:20:07;;;;;;;7.53;1.97;;;8.90;99.90;;;;;;5080729;28;20190;-49
2023/12/26 05:22:34;;;;;;;7.93;1.50;;;9.00;99.90;;;;;;5062511;28;20210;-51
2023/12/26 05:25:01;;;;;;;9.80;1.77;;;9.00;99.90;;;;;;5058687;28;20281;-51
2023/12/26 05:27:28;;;;;;;11.07;2.20;;;8.90;99.90;;;;;;5099956;27;20593;-54
2023/12/26 05:29:55;;;;;;;13.27;1.97;;;8.90;99.90;;;;;;5070208;28;20199;-51
2023/12/26 05:32:22;;;;;;;8.90;2.00;;;8.90;99.90;;;;;;5058152;28;20237;-51
2023/12/26 05:34:55;;;;;;;13.03;2.37;;;8.90;99.90;;;;;;5071886;28;20214;-52
2023/12/26 05:37:23;;;;;;;8.53;2.53;;;8.90;99.90;;;;;;5074515;28;20247;-53
2023/12/26 05:39:50;;;;;;;10.47;2.47;;;8.80;99.90;;;;;;5047827;28;20924;-52
2023/12/26 05:42:17;;;;;;;8.03;1.33;;;8.80;99.90;;;;;;5078137;28;20218;-51
2023/12/26 05:44:45;;;;;;;10.50;1.80;;;8.80;99.90;;;;;;5070042;28;20213;-56
2023/12/26 05:47:12;;;;;;;11.43;2.40;;;8.80;99.90;;;;;;5055789;28;21558;-56
2023/12/26 05:49:39;;;;;;;10.83;2.37;;;8.80;99.90;;;;;;5072002;28;20218;-57
2023/12/26 05:52:08;;;;;;;10.43;2.17;;;8.80;99.90;;;;;;5074559;28;20201;-55
2023/12/26 05:54:35;;;;;;;4.50;1.70;;;8.70;99.90;;;;;;5052465;28;20202;-57
2023/12/26 05:57:03;;;;;;;13.23;2.30;;;8.80;99.90;;;;;;5073620;28;20214;-51
2023/12/26 05:59:30;;;;;;;9.33;1.77;;;8.70;99.90;;;;;;5067261;28;20194;-53
2023/12/26 06:01:57;;;;;;;6.97;2.10;;;8.70;99.90;;;;;;5055774;28;20229;-53
2023/12/26 06:04:24;;;;;;;10.27;1.73;;;8.70;99.90;;;;;;5082740;28;20781;-53
2023/12/26 06:06:51;;;;;;;11.40;1.83;;;8.70;99.90;;;;;;5077566;28;20189;-56
2023/12/26 06:09:20;;;;;;;8.63;1.73;;;8.70;99.90;;;;;;5053052;28;20210;-54
2023/12/26 06:11:47;;;;;;;9.67;1.70;;;8.70;99.90;;;;;;5073608;28;20237;-56
2023/12/26 06:14:14;;;;;;;8.37;2.03;;;8.70;99.90;;;;;;5079858;28;20193;-52
2023/12/26 06:16:41;;;;;;;8.97;1.67;;;8.70;99.90;;;;;;5071200;28;20202;-53
2023/12/26 06:19:09;;;;;;;15.70;2.57;;;8.60;99.90;;;;;;5068827;28;20288;-55
2023/12/26 06:21:37;;;;;;;11.73;2.47;;;8.60;99.90;;;;;;5078185;28;20309;-53
2023/12/26 06:24:05;;;;;;;11.93;2.30;;;8.60;99.90;;;;;;5039553;28;20222;-56
2023/12/26 06:26:33;;;;;;;11.60;2.10;;;8.60;99.90;;;;;;5077674;28;20198;-54
2023/12/26 06:29:00;;;;;;;9.23;2.53;;;8.60;99.90;;;;;;5069606;28;20187;-54
2023/12/26 06:31:28;;;;;;;16.73;2.30;;;8.60;99.90;;;;;;5071701;28;20209;-56
2023/12/26 06:33:55;;;;;;;7.87;1.90;;;8.60;99.90;;;;;;5051458;28;20206;-55
2023/12/26 06:36:22;;;;;;;11.50;2.37;;;8.60;99.90;;;;;;5069849;28;20280;-48
2023/12/26 06:38:49;;;;;;;9.33;2.00;;;8.60;99.90;;;;;;5067640;28;20198;-52
2023/12/26 06:41:16;;;;;;;11.50;2.30;;;8.60;99.90;;;;;;5055761;28;20302;-51
2023/12/26 06:43:44;;;;;;;9.57;1.97;;;8.60;99.90;;;;;;5075480;28;20263;-54
2023/12/26 06:46:12;;;;;;;7.97;2.10;;;8.60;99.90;;;;;;5070122;28;20571;-55
2023/12/26 06:48:41;;;;;;;6.67;1.93;;;8.60;99.90;;;;;;5071486;28;20213;-50
2023/12/26 06:51:08;;;;;;;13.30;2.33;;;8.60;99.90;;;;;;5056203;28;20241;-49
2023/12/26 06:53:35;;;;;;;13.57;2.23;;;8.60;99.90;;;;;;5071727;28;20555;-53
2023/12/26 06:56:05;;;;;;;12.87;2.60;;;8.60;99.90;;;;;;5050140;28;20217;-53
2023/12/26 06:58:34;;;;;;;13.23;2.60;;;8.70;99.90;;;;;;5077157;28;20632;-52
2023/12/26 07:01:03;;;;;;;6.90;2.20;;;8.60;99.90;;;;;;5072415;28;20234;-52
2023/12/26 07:03:30;;;;;;;8.03;1.87;;;8.70;99.90;;;;;;5071904;28;20218;-52
2023/12/26 07:05:57;;;;;;;12.47;2.33;;;8.70;99.90;;;;;;5053036;28;20269;-52
2023/12/26 07:08:24;;;;;;;11.23;2.07;;;8.70;99.90;;;;;;5069707;28;20205;-52
2023/12/26 07:10:51;;;;;;;9.77;2.17;;;8.70;99.90;;;;;;5063337;28;20221;-51
2023/12/26 07:13:18;;;;;;;9.80;1.87;;;8.70;99.90;;;;;;5051734;28;20289;-51
2023/12/26 07:15:45;;;;;;;5.63;2.00;;;8.70;99.90;;;;;;5077900;28;20198;-47
2023/12/26 07:18:14;;;;;;;12.77;2.30;;;8.70;99.90;;;;;;5072261;28;20210;-48
2023/12/26 07:20:41;;;;;;;8.47;2.30;;;8.70;99.90;;;;;;5074582;28;20565;-55
2023/12/26 07:23:08;;;;;;;12.43;2.33;;;8.70;99.90;;;;;;5051618;28;20267;-55
2023/12/26 07:25:37;;;;;;;12.57;2.50;;;8.70;99.90;;;;;;5066347;28;20202;-46
2023/12/26 07:28:05;;;;;;;7.63;1.93;;;8.70;99.90;;;;;;5052810;28;21778;-49
2023/12/26 07:30:32;;;;;;;16.97;2.17;;;8.70;99.90;;;;;;5067070;28;20622;-47
2023/12/26 07:32:59;;;;;;;5.40;1.70;;;8.70;99.90;;;;;;5074713;28;20190;-48
2023/12/26 07:35:29;;;;;;;7.80;2.40;;;8.70;99.90;;;;;;5062778;28;20202;-44
2023/12/26 07:37:56;;;;;;;12.53;2.60;;;8.70;99.90;;;;;;5056175;28;20948;-47
2023/12/26 07:40:23;;;;;;;13.43;2.37;;;8.70;99.90;;;;;;5068616;28;20198;-45
2023/12/26 07:42:50;;;;;;;13.50;2.67;;;8.70;99.90;;;;;;5076625;28;20203;-48
2023/12/26 07:45:18;;;;;;;11.13;1.73;;;8.70;99.90;;;;;;5054720;28;20942;-47
2023/12/26 07:47:45;;;;;;;8.20;1.60;;;8.70;99.90;;;;;;5070104;28;20281;-47
2023/12/26 07:50:13;;;;;;;5.90;1.53;;;8.70;99.90;;;;;;5068661;28;20299;-48
2023/12/26 07:52:41;;;;;;;7.17;1.77;;;8.70;99.90;;;;;;5076741;28;20194;-47
2023/12/26 07:55:10;;;;;;;12.27;2.10;;;8.70;99.90;;;;;;5052629;28;20198;-49
2023/12/26 07:57:37;;;;;;;7.67;1.97;;;8.70;99.90;;;;;;5074711;28;20710;-45
2023/12/26 08:00:05;;;;;;;11.83;2.10;;;8.70;99.90;;;;;;5045701;28;20221;-46
2023/12/26 08:02:39;;;;;;;8.57;2.00;;;8.70;99.90;;;;;;5075548;28;20213;-45
2023/12/26 08:05:06;;;;;;;9.80;1.87;;;8.70;99.90;;;;;;5068503;28;20295;-45
2023/12/26 08:07:33;;;;;;;7.70;1.77;;;8.70;99.90;;;;;;5076241;28;20198;-44
2023/12/26 08:10:02;;;;;;;13.60;2.17;;;8.70;99.90;;;;;;5051241;28;20956;-44
2023/12/26 08:12:29;;;;;;;12.60;1.97;;;8.70;99.90;;;;;;5066096;28;20249;-45
2023/12/26 08:14:56;;;;;;;10.77;2.90;;;8.70;99.90;;;;;;5077340;28;20209;-47
2023/12/26 08:17:23;;;;;;;12.70;2.40;;;8.70;99.90;;;;;;5051013;28;20699;-43
2023/12/26 08:19:50;;;;;;;12.80;3.27;;;8.70;99.90;;;;;;5072072;28;20216;-44
2023/12/26 08:22:17;;;;;;;7.57;1.93;;;8.60;99.90;;;;;;5066189;28;20711;-44
2023/12/26 08:24:44;;;;;;;14.17;3.13;;;8.50;99.90;;;;;;5040592;28;20248;-46
2023/12/26 08:27:13;;;;;;;9.47;2.27;;;8.50;99.90;;;;;;5069693;28;20208;-44
2023/12/26 08:29:40;;;;;;;10.70;2.63;;;8.50;99.90;;;;;;5054027;28;20202;-44
2023/12/26 08:32:07;;;;;;;10.47;2.07;;;8.40;99.90;;;;;;5056202;28;20229;-45
2023/12/26 08:34:34;;;;;;;12.90;2.50;;;8.40;99.90;;;;;;5063652;28;20212;-43
2023/12/26 08:37:02;;;;;;;14.20;2.37;;;8.50;99.90;;;;;;5069255;28;20209;-44
2023/12/26 08:39:29;;;;;;;15.53;2.87;;;8.40;99.90;;;;;;5072754;28;20863;-45
2023/12/26 08:41:56;;;;;;;7.47;2.37;;;8.50;99.90;;;;;;5057999;28;20218;-44
2023/12/26 08:44:24;;;;;;;13.53;2.80;;;8.50;99.90;;;;;;5062662;28;20279;-44
2023/12/26 08:46:52;;;;;;;12.83;2.70;;;8.50;99.90;;;;;;5040422;28;20209;-43
2023/12/26 08:49:19;;;;;;;10.00;2.03;;;8.50;99.90;;;;;;5078457;28;20198;-44
2023/12/26 08:51:47;;;;;;;13.47;2.20;;;8.50;99.90;;;;;;5067481;28;20226;-50
2023/12/26 08:54:14;;;;;;;13.10;2.23;;;8.50;99.90;;;;;;5074225;28;20854;-43
2023/12/26 08:56:42;;;;;;;7.13;2.10;;;8.50;99.90;;;;;;5057339;28;20213;-45
2023/12/26 08:59:09;;;;;;;14.57;2.57;;;8.60;99.90;;;;;;5071082;28;20226;-43
2023/12/26 09:01:38;;;;;;;9.47;2.33;;;8.60;99.90;;;;;;5062816;28;20198;-44
2023/12/26 09:04:05;;;;;;;15.57;2.77;;;8.60;99.90;;;;;;5047978;28;20308;-45
2023/12/26 09:06:32;;;;;;;10.43;1.93;;;8.60;99.90;;;;;;5063384;28;20214;-45
2023/12/26 09:08:59;;;;;;;14.43;2.47;;;8.60;99.90;;;;;;5074470;28;20544;-43
2023/12/26 09:11:28;;;;;;;8.93;2.03;;;8.70;99.90;;;;;;5045908;28;20216;-43
2023/12/26 09:13:56;;;;;;;7.77;1.80;;;8.70;99.90;;;;;;5066139;28;20202;-45
2023/12/26 09:16:23;;;;;;;7.37;1.97;;;8.60;99.90;;;;;;5066730;28;20198;-43
2023/12/26 09:18:51;;;;;;;7.97;3.00;;;8.60;99.90;;;;;;5050058;28;20953;-46
2023/12/26 09:21:18;;;;;;;11.97;2.10;;;8.60;99.90;;;;;;5074569;28;20226;-45
2023/12/26 09:23:46;;;;;;;12.57;2.00;;;8.60;99.90;;;;;;5062553;28;20225;-45
2023/12/26 09:26:14;;;;;;;5.83;2.00;;;8.60;99.90;;;;;;5074550;28;20260;-43
2023/12/26 09:28:42;;;;;;;12.40;2.20;;;8.60;99.90;;;;;;5045346;28;20206;-45
2023/12/26 09:31:09;;;;;;;9.37;2.67;;;8.60;99.90;;;;;;5065181;28;20583;-45
2023/12/26 09:33:36;;;;;;;11.77;2.13;;;8.70;99.90;;;;;;5045995;28;21654;-44
2023/12/26 09:36:06;;;;;;;7.30;1.93;;;8.70;99.90;;;;;;5077775;28;20305;-46
2023/12/26 09:38:33;;;;;;;13.57;2.23;;;8.70;99.90;;;;;;5065514;28;20209;-44
2023/12/26 09:41:00;;;;;;;13.57;2.23;;;8.70;99.90;;;;;;5070952;28;20213;-45
2023/12/26 09:43:28;;;;;;;8.87;2.33;;;8.70;99.90;;;;;;5053613;28;20264;-44
2023/12/26 09:45:56;;;;;;;10.70;1.97;;;8.70;99.90;;;;;;5055841;28;20206;-45
2023/12/26 09:48:23;;;;;;;11.93;2.10;;;8.70;99.90;;;;;;5051763;28;20255;-44
2023/12/26 09:50:54;;;;;;;11.40;2.07;;;8.70;99.90;;;;;;5072311;28;20219;-45
2023/12/26 09:53:25;;;;;;;8.77;2.10;;;8.70;99.90;;;;;;5068447;28;20190;-43
2023/12/26 09:55:53;;;;;;;9.10;1.70;;;8.70;99.90;;;;;;5078918;28;20190;-44
2023/12/26 09:58:22;;;;;;;7.33;2.30;;;8.70;99.90;;;;;;5055475;28;20199;-44
2023/12/26 10:00:51;;;;;;;7.57;2.17;;;8.70;99.90;;;;;;5063403;28;20284;-45
2023/12/26 10:03:19;;;;;;;12.27;1.80;;;8.70;99.90;;;;;;5045320;28;20733;-43
2023/12/26 10:05:46;;;;;;;8.30;1.60;;;8.70;99.90;;;;;;5070978;28;20933;-46
2023/12/26 10:08:13;;;;;;;9.60;1.83;;;8.70;99.90;;;;;;5076951;28;20269;-44
2023/12/26 10:10:42;;;;;;;12.00;2.10;;;8.70;99.90;;;;;;5053253;28;20323;-44
2023/12/26 10:13:09;;;;;;;8.23;1.40;;;8.70;99.90;;;;;;5077596;28;20206;-45
2023/12/26 10:15:37;;;;;;;10.83;2.43;;;8.60;99.90;;;;;;5051787;28;20194;-45
2023/12/26 10:18:04;;;;;;;8.27;1.40;;;8.50;99.90;;;;;;5056206;28;20198;-45
2023/12/26 10:20:35;;;;;;;8.47;2.00;;;8.40;99.90;;;;;;5036352;28;20190;-45
2023/12/26 10:23:04;;;;;;;11.80;2.50;;;8.40;99.90;;;;;;5068811;28;20195;-45
2023/12/26 10:25:31;;;;;;;10.90;2.10;;;8.30;99.90;;;;;;5054100;28;20217;-46
2023/12/26 10:28:00;;;;;;;7.47;2.20;;;8.30;99.90;;;;;;5074808;28;20198;-44
2023/12/26 10:30:28;;;;;;;10.60;2.17;;;8.30;99.90;;;;;;5059710;28;20198;-44
2023/12/26 10:33:00;;;;;;;9.30;1.50;;;8.30;99.90;;;;;;5050340;28;20280;-44
2023/12/26 10:35:27;;;;;;;8.93;1.57;;;8.30;99.90;;;;;;5044655;28;20401;-45
2023/12/26 10:37:54;;;;;;;8.40;1.90;;;8.30;99.90;;;;;;5074634;28;20221;-43
2023/12/26 10:40:21;;;;;;;9.13;2.27;;;8.40;99.90;;;;;;5063642;28;20318;-44
2023/12/26 10:42:51;;;;;;;6.00;1.67;;;8.40;99.90;;;;;;5062148;28;20210;-48
2023/12/26 10:45:21;;;;;;;6.63;1.43;;;8.40;99.90;;;;;;5068881;28;20840;-46
2023/12/26 10:47:49;;;;;;;5.33;2.33;;;8.40;99.90;;;;;;5037896;28;20752;-45
2023/12/26 10:50:18;;;;;;;6.80;1.77;;;8.40;99.90;;;;;;5068569;28;20206;-43
2023/12/26 10:53:10;;;;;;;4.20;1.70;;;8.50;99.90;;;;;;5046364;28;20307;-44
2023/12/26 10:55:38;;;;;;;10.07;1.90;;;8.60;99.90;;;;;;5067881;28;20198;-45
2023/12/26 10:58:19;;;;;;;7.77;1.60;;;8.60;99.90;;;;;;5083510;28;20260;-46
2023/12/26 13:53:52;;;;;;;2.50;0.90;;;6.90;99.90;;;;;;5054711;28;20169;-49
2023/12/26 13:56:19;;;;;;;4.13;0.77;;;6.90;99.90;;;;;;5070064;28;20868;-49
2023/12/26 13:58:46;;;;;;;5.13;0.90;;;6.90;99.90;;;;;;5047283;28;20293;-49
2023/12/26 14:01:14;;;;;;;3.53;0.80;;;6.90;99.90;;;;;;5068417;28;20317;-50
2023/12/26 14:03:44;;;;;;;5.93;1.20;;;6.90;99.90;;;;;;5073828;28;20577;-53
2023/12/26 14:06:11;;;;;;;4.50;1.20;;;7.00;99.90;;;;;;5070223;28;20228;-54
2023/12/26 14:08:38;;;;;;;5.60;0.87;;;6.90;99.90;;;;;;5048238;28;20322;-51
2023/12/26 14:11:06;;;;;;;3.57;0.90;;;7.00;99.90;;;;;;5067905;28;20260;-52
2023/12/26 14:13:32;;;;;;;3.57;0.80;;;7.00;99.90;;;;;;5049206;28;20214;-53
2023/12/26 14:15:59;;;;;;;2.27;0.80;;;7.00;99.90;;;;;;5069299;28;20198;-52
2023/12/26 14:18:25;;;;;;;5.27;1.07;;;7.00;99.90;;;;;;5056134;28;20202;-42
2023/12/26 14:20:52;;;;;;;3.53;0.70;;;6.90;99.90;;;;;;5073462;28;20214;-44
2023/12/26 14:23:18;;;;;;;3.27;0.70;;;6.90;99.90;;;;;;5048790;28;20768;-43
2023/12/26 14:25:45;;;;;;;4.13;0.80;;;6.90;99.90;;;;;;5067453;28;20222;-46
2023/12/26 14:28:13;;;;;;;1.43;0.50;;;6.90;99.90;;;;;;5054439;28;20665;-44
2023/12/26 14:30:40;;;;;;;5.23;0.90;;;7.00;99.90;;;;;;5064696;28;20293;-45
2023/12/26 14:33:07;;;;;;;3.37;0.83;;;7.00;99.90;;;;;;5067728;28;20202;-43
2023/12/26 14:35:33;;;;;;;1.20;0.50;;;6.90;99.90;;;;;;5061772;28;20186;-46
2023/12/26 14:38:00;;;;;;;4.23;0.80;;;7.00;99.90;;;;;;5060438;28;20202;-46
2023/12/26 14:40:27;;;;;;;5.43;1.17;;;7.00;99.90;;;;;;5067566;28;21082;-43
2023/12/26 14:42:53;;;;;;;2.97;1.10;;;6.90;99.90;;;;;;5076119;28;20206;-43
2023/12/26 14:45:21;;;;;;;7.03;1.40;;;6.90;99.90;;;;;;5045400;28;20211;-44
2023/12/26 14:47:48;;;;;;;2.17;0.90;;;6.90;99.90;;;;;;5069281;28;20194;-43
2023/12/26 14:50:15;;;;;;;6.70;1.27;;;6.90;99.90;;;;;;5074160;28;20674;-46
2023/12/26 14:52:41;;;;;;;7.53;1.20;;;6.90;99.90;;;;;;5044666;28;20234;-44
2023/12/26 14:55:09;;;;;;;5.73;1.00;;;6.90;99.90;;;;;;5068218;28;21936;-43
2023/12/26 14:57:35;;;;;;;6.27;1.33;;;6.80;99.90;;;;;;5061626;28;20206;-44
2023/12/26 15:00:02;;;;;;;6.30;1.03;;;6.80;99.90;;;;;;5052260;28;20218;-43
2023/12/26 15:02:46;;;;;;;4.00;1.23;;;6.80;99.90;;;;;;5070492;28;22938;-43
2023/12/26 15:05:14;;;;;;;6.87;1.30;;;6.90;99.90;;;;;;5071557;28;20225;-44
2023/12/26 15:07:41;;;;;;;6.00;1.00;;;6.90;99.90;;;;;;5056697;28;20213;-43
2023/12/26 15:10:09;;;;;;;10.37;1.17;;;6.80;99.90;;;;;;5076718;28;21571;-43
2023/12/26 15:12:36;;;;;;;9.77;1.00;;;6.80;99.90;;;;;;5064146;28;20774;-46
2023/12/26 15:15:03;;;;;;;5.50;1.20;;;6.90;99.90;;;;;;5072736;28;20196;-42
2023/12/26 15:17:32;;;;;;;4.63;1.20;;;6.80;99.90;;;;;;5047300;28;20186;-46
2023/12/26 15:19:59;;;;;;;5.80;2.10;;;6.80;99.90;;;;;;5058204;28;20842;-44
2023/12/26 15:22:28;;;;;;;6.73;1.40;;;6.80;99.90;;;;;;5074607;28;20974;-43
2023/12/26 15:24:55;;;;;;;7.67;1.20;;;6.80;99.90;;;;;;5057320;28;20214;-45
2023/12/26 15:27:22;;;;;;;7.10;0.90;;;6.80;99.90;;;;;;5064791;28;20928;-45
2023/12/26 15:29:50;;;;;;;6.37;1.10;;;6.80;99.90;;;;;;5079114;28;20209;-43
2023/12/26 15:32:17;;;;;;;5.40;0.87;;;6.80;99.90;;;;;;5056337;28;20589;-42
2023/12/26 15:34:46;;;;;;;6.83;1.00;;;6.80;99.90;;;;;;5074349;28;20286;-46
2023/12/26 15:37:13;;;;;;;4.60;1.20;;;6.80;99.90;;;;;;5072332;28;20198;-45
2023/12/26 15:39:41;;;;;;;6.33;0.97;;;6.80;99.90;;;;;;5059969;28;20270;-44
2023/12/26 15:42:08;;;;;;;6.97;1.20;;;6.80;99.90;;;;;;5069358;28;20217;-43
2023/12/26 15:44:36;;;;;;;6.27;1.30;;;6.70;99.90;;;;;;5068375;28;20247;-44
2023/12/26 15:47:04;;;;;;;3.10;1.23;;;6.70;99.90;;;;;;5047121;28;20194;-43
2023/12/26 15:49:31;;;;;;;7.70;1.50;;;6.70;99.90;;;;;;5076861;28;20265;-46
2023/12/26 15:52:00;;;;;;;7.37;0.80;;;6.60;99.90;;;;;;5063599;28;20922;-44